• Join FlightAware (Why Join?)
  • Login
  • US Flag 
07:24AM EDT


 

Airport Tracker/Info


-or-


 

Live Flight TrackerFlight Track Log ✈ N757AN ✈ 03-Feb-2014 ✈ KLAX - ZSPD / PVG

Flight Track Log - Related Links

Times and Time Zones

All times are in EST time to prevent confusion due to time zone crossing. See the N757AN flight status page for this flight to view local times or setup timezone preferences in your user account.

Time Position Orientation Groundspeed Altitude Reporting Facility
EST Latitude Longitude Course Direction KTS MPH feet Rate Location/Type
04:24PM 33.9333 -118.4500 312° West 188 216 1,600  Level Southern California TRACON
04:26PM 33.8917 -118.5111 231° Southwest 229 264 2,700 1,320 Climbing Los Angeles Center
04:27PM 34.1635 -118.7061 312° West  Level Estimated
04:27PM 33.8478 -118.5797 232° Southwest 255 293 4,600  Level Los Angeles Center
04:28PM 34.2370 -118.8058 312° West  Level Estimated
04:28PM 33.8053 -118.6444 232° Southwest 267 307 6,500  Level Los Angeles Center
04:29PM 34.3104 -118.9057 312° West  Level Estimated
04:29PM 33.7869 -118.7303 256° West 266 306 8,500  Level Los Angeles Center
04:30PM 34.3837 -119.0058 312° West  Level Estimated
04:30PM 33.7892 -118.8381 271° West 279 321 10,600  Level Los Angeles Center
04:31PM 33.8211 -118.9306 293° West 298 343 11,700 1,200 Climbing Los Angeles Center
04:32PM 33.8567 -119.0383 292° West 343 395 13,200 1,560 Climbing Los Angeles Center
04:33PM 33.8936 -119.1483 292° West 354 407 15,000 1,860 Climbing Los Angeles Center
04:34PM 33.9314 -119.2594 292° West 359 413 17,100 1,800 Climbing Los Angeles Center
04:35PM 34.0092 -119.3367 321° Northwest 361 415 18,800 2,040 Climbing Los Angeles Center
04:36PM 34.1078 -119.4225 324° Northwest 362 417 21,400 1,980 Climbing Los Angeles Center
04:37PM 34.1897 -119.4886 326° Northwest 355 409 23,000 720 Climbing Los Angeles Center
04:38PM 34.2800 -119.5311 339° North 349 402 23,000 480 Level Los Angeles Center
04:39PM 34.3692 -119.5764 337° Northwest 347 399 24,100 1,080 Climbing Los Angeles Center
04:40PM 34.4439 -119.6522 320° Northwest 365 420 25,300 1,200 Climbing Los Angeles Center
04:41PM 34.5278 -119.7594 314° West 365 420 26,600 1,080 Climbing Los Angeles Center
04:42PM 34.5972 -119.8533 312° West 372 428 27,600 840 Climbing Los Angeles Center
04:43PM 34.6664 -119.9461 312° West 376 433 28,400 780 Climbing Los Angeles Center
04:44PM 34.7369 -120.0444 311° West 384 442 29,300 720 Climbing Los Angeles Center
04:45PM 34.8136 -120.1500 312° West 383 441 30,000 240 Climbing Los Angeles Center
04:46PM 34.8700 -120.2281 311° West 386 444 29,900  Descending Los Angeles Center
04:47PM 34.9536 -120.3433 312° West 383 441 30,000  Climbing Los Angeles Center
04:48PM 35.0231 -120.4411 311° West 383 441 30,000  Level Los Angeles Center
04:49PM 35.1067 -120.5578 311° West 383 441 30,000  Level Los Angeles Center
04:50PM 35.1769 -120.6558 311° West 384 442 30,000 -60 Level Los Angeles Center
04:52PM 35.3181 -120.8539 311° West 387 445 29,900  Descending Los Angeles Center
04:53PM 35.3878 -120.9533 311° West 387 445 30,000  Climbing Los Angeles Center
04:55PM 35.4728 -121.0733 311° West 388 447 30,000 -60 Level Los Angeles Center
04:56PM 35.5431 -121.1739 311° West 389 448 29,900  Descending Los Angeles Center
04:57PM 35.6144 -121.2742 311° West 392 451 30,000  Climbing Los Angeles Center
04:58PM 35.6867 -121.3794 310° West 391 450 29,900  Descending Los Angeles Center
04:59PM 35.7578 -121.4803 311° West 391 450 30,000  Climbing Los Angeles Center
05:00PM 35.8253 -121.5839 309° West 389 448 30,000 -60 Level Los Angeles Center
05:01PM 35.8811 -121.7331 295° West 400 460 29,900  Descending Los Angeles Center
05:02PM 35.9342 -121.8531 299° West 399 459 30,000  Climbing Los Angeles Center
05:03PM 35.9853 -121.9733 298° West 398 458 30,000  Level Los Angeles Center
05:04PM 36.0333 -122.0961 296° West 398 458 30,000 300 Level Los Angeles Center
05:05PM 36.0956 -122.2556 296° West 401 461 30,700 660 Climbing Oakland Center
05:06PM 36.1461 -122.3808 297° West 405 466 31,600 540 Climbing Oakland Center
05:07PM 36.1942 -122.5039 296° West 399 459 31,900 120 Climbing Oakland Center
05:08PM 36.2428 -122.6267 296° West 398 458 31,900  Level Oakland Center
05:09PM 36.3003 -122.7744 296° West 396 456 31,900  Level Oakland Center
05:10PM 36.3497 -122.8967 297° West 397 457 32,000  Climbing Oakland Center
05:11PM 36.3975 -123.0194 296° West 396 456 32,000  Level Oakland Center
05:12PM 36.4450 -123.1436 295° West 398 458 32,000 -60 Level Oakland Center
05:13PM 36.4939 -123.2672 296° West 399 459 31,900 -60 Descending Oakland Center
05:14PM 36.5408 -123.3911 295° West 398 458 31,900  Level Oakland Center
05:15PM 36.5883 -123.5161 295° West 398 458 32,000  Climbing Oakland Center
05:16PM 36.6361 -123.6417 295° West 400 460 32,000 -60 Level Oakland Center
05:17PM 36.6839 -123.7672 295° West 401 461 31,900 -60 Descending Oakland Center
05:18PM 36.7331 -123.8931 296° West 402 463 31,900  Level Oakland Center
05:19PM 36.7803 -124.0194 295° West 402 463 31,900  Level Oakland Center
05:20PM 36.8353 -124.1706 294° West 400 460 31,900  Level Oakland Center
05:21PM 36.8811 -124.2944 295° West 393 452 32,000  Climbing Oakland Center
05:22PM 36.9289 -124.4233 295° West 403 464 31,900  Descending Oakland Center
05:24PM 36.9767 -124.5533 295° West 410 472 32,000  Climbing Oakland Center
05:25PM 37.0244 -124.6819 295° West 410 472 31,900  Descending Oakland Center
05:26PM 37.0728 -124.8114 295° West 409 471 32,000  Climbing Oakland Center
05:27PM 37.1194 -124.9406 294° West 408 470 31,900  Descending Oakland Center
05:28PM 37.1675 -125.0706 295° West 410 472 32,000  Climbing Oakland Center
05:29PM 37.2147 -125.2017 294° West 412 474 31,900  Descending Oakland Center
05:30PM 37.2622 -125.3331 294° West 413 475 32,000  Climbing Oakland Center
05:31PM 37.3186 -125.4919 294° West 415 478 31,900 -60 Descending Oakland Center
05:32PM 37.3658 -125.6242 294° West 415 478 31,900  Level Oakland Center
05:33PM 37.4142 -125.7572 295° West 418 481 31,900  Level Oakland Center
05:34PM 37.4608 -125.8911 294° West 417 480 32,000  Climbing Oakland Center
05:35PM 37.5083 -126.0250 294° West 419 482 31,900  Descending Oakland Center
05:36PM 37.5558 -126.1586 294° West 419 482 32,000  Climbing Oakland Center
05:37PM 37.6025 -126.2925 294° West 418 481 32,000  Level Oakland Center
05:38PM 37.6494 -126.4278 294° West 420 483 32,000 -60 Level Oakland Center
05:39PM 37.7086 -126.5519 301° West 425 489 31,900 -60 Descending Oakland Center
05:40PM 37.7769 -126.6922 302° West 415 478 31,900  Level Oakland Center
05:41PM 37.8244 -126.8283 294° West 420 483 31,900  Level Oakland Center
05:42PM 37.8500 -127.0000 271° West 438 504 32,000  Climbing Oakland Oceanic (ODAPS)
05:48PM 37.8500 -127.7833 270° West 442 509 32,000  Level Oakland Oceanic (ODAPS)
06:01PM 37.8333 -129.9333 270° West 457 526 32,000  Level Oakland Oceanic (ODAPS)
06:02PM 37.8333 -130.0000 295° West 447 514 32,000  Level Oakland Oceanic (ODAPS)
06:15PM 38.5333 -131.9000 294° West 453 521 32,000  Level Oakland Oceanic (ODAPS)
06:29PM 39.2000 -133.9000 293° West 450 518 32,000  Level Oakland Oceanic (ODAPS)
06:43PM 39.8500 -135.9500 292° West 458 527 32,000  Level Oakland Oceanic (ODAPS)
06:57PM 40.4833 -138.0833 290° West 460 529 32,000  Level Oakland Oceanic (ODAPS)
07:09PM 41.0000 -140.0000 295° West 470 541 32,000  Level Oakland Oceanic (ODAPS)
07:10PM 41.1000 -140.2667 295° West 467 537 32,000  Level Oakland Oceanic (ODAPS)
07:24PM 41.8500 -142.4500 294° West 471 542 32,000  Level Oakland Oceanic (ODAPS)
07:38PM 42.5500 -144.7000 292° West 470 541 32,000  Level Oakland Oceanic (ODAPS)
07:52PM 43.2167 -147.0000 291° West 468 539 32,000  Level Oakland Oceanic (ODAPS)
08:06PM 43.8167 -149.2833 290° West 461 531 32,000  Level Oakland Oceanic (ODAPS)
08:10PM 44.0000 -150.0000 281° West 467 537 32,000  Level Oakland Oceanic (ODAPS)
08:20PM 44.2333 -151.6667 280° West 472 543 32,000  Level Oakland Oceanic (ODAPS)
08:34PM 44.5167 -154.1333 279° West 473 544 32,000 60 Level Oakland Oceanic (ODAPS)
08:48PM 44.7667 -156.6333 277° West 465 535 35,000 60 Climbing Oakland Oceanic (ODAPS)
09:01PM 44.9500 -159.1500 275° West 478 550 33,800 -120 Descending Oakland Oceanic (ODAPS)
09:06PM 45.0000 -160.0000 274° West 491 565 33,500 -60 Descending Oakland Oceanic (ODAPS)
09:15PM 45.0667 -161.7833 272° West 492 566 33,500  Level Oakland Oceanic (ODAPS)
09:29PM 45.1000 -164.4833 270° West 499 574 33,500  Level Oakland Oceanic (ODAPS)
09:43PM 45.0833 -167.1500 269° West 497 572 33,500  Level Oakland Oceanic (ODAPS)
09:57PM 45.0000 -169.8667 270° West 493 567 33,500  Level Oakland Oceanic (ODAPS)
09:58PM 45.0000 -170.0000 266° West 499 574 33,500  Level Oakland Oceanic (ODAPS)
10:11PM 44.8333 -172.5667 264° West 508 585 33,500  Level Oakland Oceanic (ODAPS)
10:25PM 44.5833 -175.3167 262° West 503 579 33,500  Level Oakland Oceanic (ODAPS)
10:38PM 44.2833 -177.9667 260° West 494 568 33,500  Level Oakland Oceanic (ODAPS)
10:50PM 44.0000 180.0000 251° West 482 555 33,500  Level Oakland Oceanic (ODAPS)
10:52PM 43.8833 179.5167 251° West 478 550 33,500  Level Oakland Oceanic (ODAPS)
11:06PM 43.2500 177.1167 249° West 484 557 34,000  Climbing Oakland Oceanic (ODAPS)
11:20PM 42.5667 174.7167 248° West 481 554 34,000  Level Oakland Oceanic (ODAPS)
11:34PM 41.8500 172.4833 246° West 463 533 35,000  Climbing Oakland Oceanic (ODAPS)
11:48PM 41.1167 170.3333 245° Southwest 451 519 35,000  Level Oakland Oceanic (ODAPS)
11:50PM 41.0000 170.0000 252° West 437 503 35,000  Level Oakland Oceanic (ODAPS)
12:02AM 40.5333 168.1833 251° West 432 497 35,000  Level Oakland Oceanic (ODAPS)
12:16AM 39.9500 166.0667 249° West 428 493 35,000  Level Oakland Oceanic (ODAPS)
12:17AM 39.9230 165.9727 249° West 432 497 35,000  Level FlightAware Transoceanic
12:18AM 39.8808 165.8267 249° West 432 497 35,000  Level FlightAware Transoceanic
12:19AM 39.8384 165.6810 249° West 432 497 35,000  Level FlightAware Transoceanic
12:20AM 39.7959 165.5354 249° West 432 497 35,000  Level FlightAware Transoceanic
12:21AM 39.7532 165.3900 249° West 432 497 35,000  Level FlightAware Transoceanic
12:22AM 39.6970 165.2002 249° West 428 493 35,000  Level FlightAware Transoceanic
12:23AM 39.6543 165.0564 249° West 428 493 35,000  Level FlightAware Transoceanic
12:24AM 39.6113 164.9128 249° West 428 493 35,000  Level FlightAware Transoceanic
12:25AM 39.5682 164.7693 249° West 428 493 35,000  Level FlightAware Transoceanic
12:26AM 39.5249 164.6261 249° West 428 493 35,000  Level FlightAware Transoceanic
12:27AM 39.4814 164.4830 248° West 428 493 35,000  Level FlightAware Transoceanic
12:28AM 39.4377 164.3401 248° West 428 493 35,000  Level FlightAware Transoceanic
12:29AM 39.3939 164.1974 248° West 428 493 35,000  Level FlightAware Transoceanic
12:30AM 39.3499 164.0548 248° West 428 493 35,000  Level FlightAware Transoceanic
12:31AM 39.3057 163.9125 248° West 428 493 35,000  Level FlightAware Transoceanic
12:32AM 39.2613 163.7703 248° West 428 493 35,000  Level FlightAware Transoceanic
12:33AM 39.2168 163.6283 248° West 428 493 35,000  Level FlightAware Transoceanic
12:34AM 39.1721 163.4865 248° West 428 493 35,000  Level FlightAware Transoceanic
12:35AM 39.1272 163.3448 248° West 428 493 35,000  Level FlightAware Transoceanic
12:36AM 39.0822 163.2034 248° West 428 493 35,000  Level FlightAware Transoceanic
12:37AM 39.0369 163.0621 248° West 428 493 35,000  Level FlightAware Transoceanic
12:38AM 38.9916 162.9210 247° West 428 493 35,000  Level FlightAware Transoceanic
12:39AM 38.9460 162.7801 247° West 428 493 35,000  Level FlightAware Transoceanic
12:40AM 38.9003 162.6393 247° West 428 493 35,000  Level FlightAware Transoceanic
12:41AM 38.8544 162.4988 247° West 428 493 35,000  Level FlightAware Transoceanic
12:42AM 38.8083 162.3584 247° West 428 493 35,000  Level FlightAware Transoceanic
12:43AM 38.7621 162.2182 247° West 428 493 35,000  Level FlightAware Transoceanic
12:44AM 38.7157 162.0782 247° West 428 493 35,000  Level FlightAware Transoceanic
12:45AM 38.6691 161.9384 247° West 428 493 35,000  Level FlightAware Transoceanic
12:46AM 38.6224 161.7988 247° West 428 493 35,000  Level FlightAware Transoceanic
12:47AM 38.5755 161.6593 247° West 428 493 35,000  Level FlightAware Transoceanic
12:48AM 38.5284 161.5200 247° West 428 493 35,000  Level FlightAware Transoceanic
12:49AM 38.4812 161.3809 247° West 428 493 35,000  Level FlightAware Transoceanic
12:50AM 38.4338 161.2420 246° West 428 493 35,000  Level FlightAware Transoceanic
12:51AM 38.3863 161.1033 246° West 428 493 35,000  Level FlightAware Transoceanic
12:52AM 38.3386 160.9647 246° West 428 493 35,000  Level FlightAware Transoceanic
12:53AM 38.2907 160.8264 246° West 428 493 35,000  Level FlightAware Transoceanic
12:54AM 38.2426 160.6882 246° West 428 493 35,000  Level FlightAware Transoceanic
12:55AM 38.1944 160.5502 246° West 428 493 35,000  Level FlightAware Transoceanic
12:56AM 38.1461 160.4124 246° West 428 493 35,000  Level FlightAware Transoceanic
12:57AM 38.0975 160.2747 246° West 428 493 35,000  Level FlightAware Transoceanic
12:58AM 38.0489 160.1373 246° West 428 493 35,000  Level FlightAware Transoceanic
12:59AM 38.0000 160.0000 253° West 428 493 35,000  Level FlightAware Transoceanic
01:00AM 37.9637 159.8539 252° West 428 493 35,000  Level FlightAware Transoceanic
01:01AM 37.9273 159.7079 252° West 428 493 35,000  Level FlightAware Transoceanic
01:02AM 37.8906 159.5620 252° West 428 493 35,000  Level FlightAware Transoceanic
01:03AM 37.8538 159.4163 252° West 428 493 35,000  Level FlightAware Transoceanic
01:04AM 37.8168 159.2707 252° West 428 493 35,000  Level FlightAware Transoceanic
01:05AM 37.7796 159.1253 252° West 428 493 35,000  Level FlightAware Transoceanic
01:06AM 37.7423 158.9801 252° West 428 493 35,000  Level FlightAware Transoceanic
01:07AM 37.7048 158.8349 252° West 428 493 35,000  Level FlightAware Transoceanic
01:08AM 37.6670 158.6900 252° West 428 493 35,000  Level FlightAware Transoceanic
01:09AM 37.6292 158.5451 252° West 428 493 35,000  Level FlightAware Transoceanic
01:10AM 37.5911 158.4005 252° West 428 493 35,000  Level FlightAware Transoceanic
01:11AM 37.5528 158.2559 251° West 428 493 35,000  Level FlightAware Transoceanic
01:12AM 37.5144 158.1116 251° West 428 493 35,000  Level FlightAware Transoceanic
01:13AM 37.4758 157.9673 251° West 428 493 35,000  Level FlightAware Transoceanic
01:14AM 37.4371 157.8232 251° West 428 493 35,000  Level FlightAware Transoceanic
01:15AM 37.3981 157.6793 251° West 428 493 35,000  Level FlightAware Transoceanic
01:16AM 37.3590 157.5355 251° West 428 493 35,000  Level FlightAware Transoceanic
01:17AM 37.3197 157.3919 251° West 428 493 35,000  Level FlightAware Transoceanic
01:18AM 37.2803 157.2484 251° West 428 493 35,000  Level FlightAware Transoceanic
01:19AM 37.2406 157.1051 251° West 428 493 35,000  Level FlightAware Transoceanic
01:20AM 37.2008 156.9619 251° West 428 493 35,000  Level FlightAware Transoceanic
01:21AM 37.1608 156.8188 251° West 428 493 35,000  Level FlightAware Transoceanic
01:22AM 37.1207 156.6760 251° West 428 493 35,000  Level FlightAware Transoceanic
01:23AM 37.0804 156.5332 250° West 428 493 35,000  Level FlightAware Transoceanic
01:24AM 37.0399 156.3907 250° West 428 493 35,000  Level FlightAware Transoceanic
01:25AM 36.9992 156.2482 250° West 428 493 35,000  Level FlightAware Transoceanic
01:26AM 36.9584 156.1060 250° West 428 493 35,000  Level FlightAware Transoceanic
01:27AM 36.9174 155.9639 250° West 428 493 35,000  Level FlightAware Transoceanic
01:28AM 36.8762 155.8219 250° West 428 493 35,000  Level FlightAware Transoceanic
01:29AM 36.8349 155.6801 250° West 428 493 35,000  Level FlightAware Transoceanic
01:30AM 36.7933 155.5384 250° West 428 493 35,000  Level FlightAware Transoceanic
01:31AM 36.7517 155.3969 250° West 428 493 35,000  Level FlightAware Transoceanic
01:32AM 36.7098 155.2556 250° West 428 493 35,000  Level FlightAware Transoceanic
01:33AM 36.6678 155.1144 250° West 428 493 35,000  Level FlightAware Transoceanic
01:34AM 36.6256 154.9733 250° West 428 493 35,000  Level FlightAware Transoceanic
01:35AM 36.5833 154.8324 249° West 428 493 35,000  Level FlightAware Transoceanic
01:36AM 36.5408 154.6917 249° West 428 493 35,000  Level FlightAware Transoceanic
01:37AM 36.4981 154.5511 249° West 428 493 35,000  Level FlightAware Transoceanic
01:38AM 36.4552 154.4107 249° West 428 493 35,000  Level FlightAware Transoceanic
01:39AM 36.4122 154.2704 249° West 428 493 35,000  Level FlightAware Transoceanic
01:40AM 36.3691 154.1303 249° West 428 493 35,000  Level FlightAware Transoceanic
01:41AM 36.3257 153.9904 249° West 428 493 35,000  Level FlightAware Transoceanic
01:42AM 36.2822 153.8506 249° West 428 493 35,000  Level FlightAware Transoceanic
01:43AM 36.2386 153.7109 249° West 428 493 35,000  Level FlightAware Transoceanic
01:44AM 36.1948 153.5715 249° West 428 493 35,000  Level FlightAware Transoceanic
01:45AM 36.1508 153.4321 249° West 428 493 35,000  Level FlightAware Transoceanic
01:46AM 36.1066 153.2930 249° West 428 493 35,000  Level FlightAware Transoceanic
01:47AM 36.0623 153.1539 248° West 428 493 35,000  Level FlightAware Transoceanic
01:48AM 36.0179 153.0151 248° West 428 493 35,000  Level FlightAware Transoceanic
01:49AM 35.9733 152.8764 248° West 428 493 35,000  Level FlightAware Transoceanic
01:50AM 35.9285 152.7378 248° West 428 493 35,000  Level FlightAware Transoceanic
01:51AM 35.8835 152.5994 248° West 428 493 35,000  Level FlightAware Transoceanic
01:52AM 35.8384 152.4612 248° West 428 493 35,000  Level FlightAware Transoceanic
01:53AM 35.7932 152.3231 248° West 428 493 35,000  Level FlightAware Transoceanic
01:54AM 35.7477 152.1852 248° West 428 493 35,000  Level FlightAware Transoceanic
01:55AM 35.7022 152.0474 248° West 428 493 35,000  Level FlightAware Transoceanic
01:56AM 35.6564 151.9098 248° West 428 493 35,000  Level FlightAware Transoceanic
01:57AM 35.6106 151.7724 248° West 428 493 35,000  Level FlightAware Transoceanic
01:58AM 35.5645 151.6351 248° West 428 493 35,000  Level FlightAware Transoceanic
01:59AM 35.5183 151.4980 247° West 428 493 35,000  Level FlightAware Transoceanic
02:00AM 35.4720 151.3610 247° West 428 493 35,000  Level FlightAware Transoceanic
02:01AM 35.4254 151.2242 247° West 428 493 35,000  Level FlightAware Transoceanic
02:02AM 35.3788 151.0875 247° West 428 493 35,000  Level FlightAware Transoceanic
02:03AM 35.3320 150.9510 247° West 428 493 35,000  Level FlightAware Transoceanic
02:04AM 35.2850 150.8147 247° West 428 493 35,000  Level FlightAware Transoceanic
02:05AM 35.2379 150.6785 247° West 428 493 35,000  Level FlightAware Transoceanic
02:06AM 35.1906 150.5425 247° West 428 493 35,000  Level FlightAware Transoceanic
02:07AM 35.1432 150.4066 247° West 428 493 35,000  Level FlightAware Transoceanic
02:08AM 35.0956 150.2709 247° West 428 493 35,000  Level FlightAware Transoceanic
02:09AM 35.0479 150.1354 247° West 428 493 35,000  Level FlightAware Transoceanic
02:10AM 35.0453 150.0011 269° West  Level Estimated
02:11AM 35.0426 149.8669 269° West  Level Estimated
02:12AM 35.0398 149.7326 269° West  Level Estimated
02:13AM 35.0368 149.5984 268° West  Level Estimated
02:14AM 35.0336 149.4642 268° West  Level Estimated
02:15AM 35.0303 149.3300 268° West  Level Estimated
02:16AM 35.0269 149.1958 268° West  Level Estimated
02:17AM 35.0233 149.0616 268° West  Level Estimated
02:18AM 35.0195 148.9274 268° West  Level Estimated
02:19AM 35.0156 148.7933 268° West  Level Estimated
02:20AM 35.0116 148.6591 268° West  Level Estimated
02:21AM 35.0074 148.5250 268° West  Level Estimated
02:22AM 35.0031 148.3915 268° West  Level Estimated
02:23AM 34.9986 148.2580 268° West  Level Estimated
02:24AM 34.9940 148.1246 268° West  Level Estimated
02:25AM 34.9893 147.9911 268° West  Level Estimated
02:26AM 34.9844 147.8577 267° West  Level Estimated
02:27AM 34.9794 147.7243 267° West  Level Estimated
02:28AM 34.9742 147.5909 267° West  Level Estimated
02:29AM 34.9688 147.4575 267° West  Level Estimated
02:30AM 34.9634 147.3241 267° West  Level Estimated
02:31AM 34.9577 147.1908 267° West  Level Estimated
02:32AM 34.9520 147.0574 267° West  Level Estimated
02:33AM 34.9461 146.9241 267° West  Level Estimated
02:34AM 34.9400 146.7908 267° West  Level Estimated
02:35AM 34.9338 146.6576 267° West  Level Estimated
02:36AM 34.9274 146.5243 267° West  Level Estimated
02:37AM 34.9209 146.3911 267° West  Level Estimated
02:38AM 34.9143 146.2579 267° West  Level Estimated
02:39AM 34.9075 146.1247 266° West  Level Estimated
02:40AM 34.9006 145.9915 266° West  Level Estimated
02:41AM 34.8935 145.8584 266° West  Level Estimated
02:42AM 34.8863 145.7253 266° West  Level Estimated
02:43AM 34.8789 145.5922 266° West  Level Estimated
02:44AM 34.8714 145.4591 266° West  Level Estimated
02:45AM 34.8637 145.3260 266° West  Level Estimated
02:46AM 34.8559 145.1930 266° West  Level Estimated
02:47AM 34.8480 145.0600 266° West  Level Estimated
02:48AM 34.8399 144.9271 266° West  Level Estimated
02:49AM 34.8317 144.7941 266° West  Level Estimated
02:50AM 34.8233 144.6612 266° West  Level Estimated
02:51AM 34.8148 144.5283 266° West  Level Estimated
02:52AM 34.8061 144.3954 265° West  Level Estimated
02:53AM 34.7973 144.2626 265° West  Level Estimated
02:54AM 34.7883 144.1298 265° West  Level Estimated
02:55AM 34.7792 143.9970 265° West  Level Estimated
02:56AM 34.7700 143.8643 265° West  Level Estimated
02:57AM 34.7606 143.7316 265° West  Level Estimated
02:58AM 34.7510 143.5989 265° West  Level Estimated
02:59AM 34.7413 143.4662 265° West  Level Estimated
03:00AM 34.7315 143.3336 265° West  Level Estimated
03:01AM 34.7215 143.2010 265° West  Level Estimated
03:02AM 34.7114 143.0685 265° West  Level Estimated
03:03AM 34.7012 142.9359 265° West  Level Estimated
03:04AM 34.6908 142.8034 265° West  Level Estimated
03:05AM 34.6802 142.6710 265° West  Level Estimated
03:06AM 34.6696 142.5385 264° West  Level Estimated
03:07AM 34.6587 142.4062 264° West  Level Estimated
03:08AM 34.6478 142.2738 264° West  Level Estimated
03:09AM 34.6367 142.1415 264° West  Level Estimated
03:10AM 34.6254 142.0092 264° West  Level Estimated
03:11AM 34.6140 141.8769 264° West  Level Estimated
03:12AM 34.6025 141.7447 264° West  Level Estimated
03:13AM 34.5908 141.6125 264° West  Level Estimated
03:14AM 34.5789 141.4804 264° West  Level Estimated
03:15AM 34.5670 141.3483 264° West  Level Estimated
03:16AM 34.5549 141.2162 264° West  Level Estimated
03:17AM 34.5426 141.0842 264° West  Level Estimated
03:18AM 34.5302 140.9523 264° West  Level Estimated
03:19AM 34.5177 140.8203 263° West  Level Estimated
03:20AM 34.5050 140.6884 263° West  Level Estimated
03:21AM 34.4922 140.5565 263° West  Level Estimated
03:22AM 34.4792 140.4247 263° West  Level Estimated
03:23AM 34.4661 140.2929 263° West  Level Estimated
03:24AM 34.4529 140.1612 263° West  Level Estimated
03:25AM 34.4395 140.0295 263° West  Level Estimated
03:25AM 34.9450 141.1560 263° West 373 429 38,000  Level FlightAware ADS-B
03:26AM 34.4259 139.8978 263° West  Level Estimated
03:26AM 34.9550 141.0630 278° West 367 422 38,000  Level FlightAware ADS-B
03:27AM 34.9750 140.8670 277° West 377 434 38,000  Level FlightAware ADS-B
03:28AM 34.9820 140.7990 277° West 377 434 38,000  Level FlightAware ADS-B
03:28AM 34.9920 140.7040 277° West 379 436 38,000  Level FlightAware ADS-B
03:29AM 35.0030 140.5890 277° West 380 437 38,000  Level FlightAware ADS-B
03:30AM 35.0110 140.5090 277° West 379 436 38,000  Level FlightAware ADS-B
03:30AM 35.0180 140.4430 277° West 379 436 38,000  Level FlightAware ADS-B
03:31AM 35.0240 140.3770 276° West 377 434 38,000  Level FlightAware ADS-B
03:31AM 35.0300 140.3180 277° West 377 434 38,000  Level FlightAware ADS-B
03:32AM 35.0380 140.2390 277° West 379 436 38,000  Level FlightAware ADS-B
03:33AM 35.0450 140.1630 276° West 380 437 38,000  Level FlightAware ADS-B
03:33AM 35.0530 140.0860 277° West 379 436 38,000  Level FlightAware ADS-B
03:34AM 35.0600 140.0060 276° West 379 436 38,000  Level FlightAware ADS-B
03:34AM 35.0680 139.9300 277° West 378 435 38,000  Level FlightAware ADS-B
03:35AM 35.0730 139.8670 276° West 378 435 38,000  Level FlightAware ADS-B
03:36AM 35.0810 139.7900 277° West 379 436 38,000  Level FlightAware ADS-B
03:36AM 35.0834 139.7602 276° West 379 436 38,000  Level FlightAware ADS-B (RJTF)
03:36AM 35.0870 139.7270 277° West 378 435 38,000  Level FlightAware ADS-B
03:37AM 35.0915 139.6725 276° West 376 433 38,000  Level FlightAware ADS-B (RJTF)
03:37AM 35.0920 139.6640 274° West 377 434 38,000  Level FlightAware ADS-B
03:37AM 35.0980 139.6000 277° West 377 434 38,000  Level FlightAware ADS-B
03:37AM 35.1000 139.5807 277° West 376 433 38,000  Level FlightAware ADS-B (RJTF)
03:38AM 35.1088 139.4841 276° West 381 438 38,000  Level FlightAware ADS-B (RJTF)
03:38AM 35.1090 139.4780 273° West 382 440 38,000  Level FlightAware ADS-B
03:39AM 35.1149 139.4169 277° West 383 441 38,000  Level FlightAware ADS-B (RJTF)
03:39AM 35.1196 139.3646 276° West 383 441 38,000  Level FlightAware ADS-B (RJTF)
03:40AM 35.1262 139.2911 276° West 386 444 38,000  Level FlightAware ADS-B (RJTF)
03:40AM 35.1325 139.2201 276° West 386 444 38,000  Level FlightAware ADS-B (RJTF)
03:41AM 35.1380 139.1573 276° West 382 440 38,000  Level FlightAware ADS-B (RJTF)
03:41AM 35.1447 139.0835 276° West 381 438 38,000  Level FlightAware ADS-B (RJTF)
03:44AM 35.0979 138.7800 259° West  Level Estimated
03:45AM 35.0773 138.6482 259° West  Level Estimated
03:46AM 35.0566 138.5164 259° West  Level Estimated
03:47AM 35.0358 138.3848 259° West  Level Estimated
03:48AM 35.0148 138.2531 259° West  Level Estimated
03:49AM 34.9936 138.1216 259° West  Level Estimated
03:50AM 34.9724 137.9901 259° West  Level Estimated
03:51AM 34.9510 137.8587 259° West  Level Estimated
03:52AM 34.9294 137.7273 259° West  Level Estimated
03:53AM 34.9077 137.5960 259° West  Level Estimated
03:54AM 34.8858 137.4648 259° West  Level Estimated
03:55AM 34.8639 137.3337 258° West  Level Estimated
03:56AM 34.8418 137.2026 258° West  Level Estimated
03:57AM 34.8195 137.0716 258° West  Level Estimated
03:58AM 34.7971 136.9407 258° West  Level Estimated
03:59AM 34.7745 136.8098 258° West  Level Estimated
04:00AM 34.7519 136.6790 258° West  Level Estimated
04:01AM 34.7290 136.5483 258° West  Level Estimated
04:02AM 34.7061 136.4177 258° West  Level Estimated
04:03AM 34.6830 136.2871 258° West  Level Estimated
04:04AM 34.6597 136.1566 258° West  Level Estimated
04:05AM 34.6364 136.0262 258° West  Level Estimated
04:06AM 34.6128 135.8958 258° West  Level Estimated
04:07AM 34.5892 135.7655 258° West  Level Estimated
04:08AM 34.5654 135.6353 258° West  Level Estimated
04:09AM 34.5414 135.5052 257° West  Level Estimated
04:10AM 34.5174 135.3752 257° West  Level Estimated
04:11AM 34.4932 135.2452 257° West  Level Estimated
04:12AM 34.4688 135.1153 257° West  Level Estimated
04:13AM 34.4443 134.9854 257° West  Level Estimated
04:14AM 34.4197 134.8557 257° West  Level Estimated
04:15AM 34.3949 134.7260 257° West  Level Estimated
04:16AM 34.3700 134.5964 257° West  Level Estimated
04:17AM 34.3450 134.4669 257° West  Level Estimated
04:18AM 34.3198 134.3375 257° West  Level Estimated
04:19AM 34.2945 134.2081 257° West  Level Estimated
04:20AM 34.2691 134.0788 257° West  Level Estimated
04:21AM 34.2435 133.9496 257° West  Level Estimated
04:22AM 34.2178 133.8205 256° West  Level Estimated
04:23AM 34.1920 133.6914 256° West  Level Estimated
04:24AM 34.1660 133.5625 256° West  Level Estimated
04:25AM 34.1399 133.4336 256° West  Level Estimated
04:26AM 34.1136 133.3048 256° West  Level Estimated
04:27AM 34.0872 133.1760 256° West  Level Estimated
04:28AM 34.0607 133.0474 256° West  Level Estimated
04:29AM 34.0340 132.9188 256° West  Level Estimated
04:30AM 34.0072 132.7903 256° West  Level Estimated
04:31AM 33.9803 132.6619 256° West  Level Estimated
04:32AM 33.9533 132.5336 256° West  Level Estimated
04:33AM 33.9261 132.4053 256° West  Level Estimated
04:34AM 33.8988 132.2772 256° West  Level Estimated
04:35AM 33.8713 132.1491 256° West  Level Estimated
04:36AM 33.8437 132.0211 255° West  Level Estimated
04:37AM 33.8160 131.8932 255° West  Level Estimated
04:38AM 33.7881 131.7654 255° West  Level Estimated
04:39AM 33.7602 131.6376 255° West  Level Estimated
04:40AM 33.7321 131.5099 255° West  Level Estimated
04:41AM 33.7038 131.3824 255° West  Level Estimated
04:42AM 33.6754 131.2549 255° West  Level Estimated
04:43AM 33.6469 131.1275 255° West  Level Estimated
04:44AM 33.6183 131.0001 255° West  Level Estimated
04:45AM 33.5895 130.8729 255° West  Level Estimated
04:46AM 33.5606 130.7457 255° West  Level Estimated
04:47AM 33.5316 130.6187 255° West  Level Estimated
04:48AM 33.5024 130.4917 255° West  Level Estimated
04:49AM 33.4731 130.3648 255° West  Level Estimated
04:50AM 33.4437 130.2379 254° West  Level Estimated
04:51AM 33.4142 130.1112 254° West  Level Estimated
04:52AM 33.3845 129.9846 254° West  Level Estimated
04:53AM 33.3547 129.8580 254° West  Level Estimated
04:54AM 33.3247 129.7316 254° West  Level Estimated
04:55AM 33.2947 129.6052 254° West  Level Estimated
04:56AM 33.2645 129.4789 254° West  Level Estimated
04:57AM 33.2342 129.3527 254° West  Level Estimated
04:58AM 33.2038 129.2265 254° West  Level Estimated
04:59AM 33.1732 129.1005 254° West  Level Estimated
05:00AM 33.1425 128.9746 254° West  Level Estimated
05:01AM 33.1117 128.8487 254° West  Level Estimated
05:02AM 33.0807 128.7229 254° West  Level Estimated
05:03AM 33.0496 128.5973 254° West  Level Estimated
05:04AM 33.0184 128.4717 254° West  Level Estimated
05:05AM 32.9871 128.3462 253° West  Level Estimated
05:06AM 32.9557 128.2208 253° West  Level Estimated
05:07AM 32.9241 128.0954 253° West  Level Estimated
05:08AM 32.8924 127.9702 253° West  Level Estimated
05:09AM 32.8605 127.8451 253° West  Level Estimated
05:10AM 32.8286 127.7200 253° West  Level Estimated
05:11AM 32.7965 127.5951 253° West  Level Estimated
05:12AM 32.7643 127.4702 253° West  Level Estimated
05:13AM 32.7320 127.3454 253° West  Level Estimated
05:14AM 32.6996 127.2207 253° West  Level Estimated
05:15AM 32.6670 127.0961 253° West  Level Estimated
05:16AM 32.6343 126.9716 253° West  Level Estimated
05:17AM 32.6015 126.8472 253° West  Level Estimated
05:18AM 32.5685 126.7229 253° West  Level Estimated
05:19AM 32.5355 126.5986 253° West  Level Estimated
05:20AM 32.5023 126.4745 252° West  Level Estimated
05:21AM 32.4690 126.3504 252° West  Level Estimated
05:22AM 32.4356 126.2265 252° West  Level Estimated
05:23AM 32.4020 126.1026 252° West  Level Estimated
05:24AM 32.3683 125.9788 252° West  Level Estimated
05:25AM 32.3345 125.8551 252° West  Level Estimated
05:26AM 32.3006 125.7316 252° West  Level Estimated
05:27AM 32.2666 125.6080 252° West  Level Estimated
05:28AM 32.2325 125.4846 252° West  Level Estimated
05:29AM 32.1982 125.3613 252° West  Level Estimated
05:30AM 32.1638 125.2381 252° West  Level Estimated
05:31AM 32.1293 125.1150 252° West  Level Estimated
05:32AM 32.0947 124.9920 252° West  Level Estimated
05:33AM 32.0599 124.8690 252° West  Level Estimated
05:34AM 32.0251 124.7462 252° West  Level Estimated
05:35AM 31.9901 124.6234 251° West  Level Estimated
05:36AM 31.9550 124.5007 251° West  Level Estimated
05:37AM 31.9198 124.3782 251° West  Level Estimated
05:38AM 31.8844 124.2557 251° West  Level Estimated
05:39AM 31.8490 124.1333 251° West  Level Estimated
05:40AM 31.8134 124.0110 251° West  Level Estimated
05:41AM 31.7777 123.8889 251° West  Level Estimated
05:42AM 31.7419 123.7668 251° West  Level Estimated
05:43AM 31.7060 123.6448 251° West  Level Estimated
05:44AM 31.6699 123.5229 251° West  Level Estimated
05:45AM 31.6338 123.4010 251° West  Level Estimated
05:46AM 31.5975 123.2793 251° West  Level Estimated
05:47AM 31.5611 123.1577 251° West  Level Estimated
05:48AM 31.5246 123.0362 251° West  Level Estimated
05:49AM 31.4880 122.9147 251° West  Level Estimated
05:50AM 31.4513 122.7934 250° West  Level Estimated
05:51AM 31.4145 122.6722 250° West  Level Estimated
05:52AM 31.3775 122.5510 250° West  Level Estimated
05:53AM 31.3404 122.4300 250° West  Level Estimated
05:54AM 31.3032 122.3090 250° West  Level Estimated
05:55AM 31.2659 122.1882 250° West  Level Estimated
05:56AM 31.2285 122.0674 250° West  Level Estimated
05:57AM 31.1910 121.9467 250° West  Level Estimated
05:58AM 31.1534 121.8262 250° West  Level Estimated
05:59AM 31.1428 121.7924 250° West  Level Estimated
06:00AM 31.1428 121.7924 221° Southwest  Level Estimated
06:01AM 31.1428 121.7924 221° Southwest  Level Estimated
06:02AM 31.1428 121.7924 221° Southwest  Level Estimated
06:03AM 31.1428 121.7924 221° Southwest  Level Estimated
06:04AM 31.1428 121.7924 221° Southwest  Level Estimated
06:05AM 31.1428 121.7924 221° Southwest  Level Estimated
06:06AM 31.1428 121.7924 221° Southwest  Level Estimated
06:07AM 31.1428 121.7924 221° Southwest  Level Estimated
06:08AM 31.1428 121.7924 221° Southwest  Level Estimated
06:09AM 31.1428 121.7924 221° Southwest  Level Estimated
06:10AM 31.1428 121.7924 221° Southwest  Level Estimated
06:11AM 31.1428 121.7924 221° Southwest  Level Estimated
06:12AM 31.1428 121.7924 221° Southwest  Level Estimated
06:13AM 31.1428 121.7924 221° Southwest  Level Estimated
06:14AM 31.1428 121.7924 221° Southwest  Level Estimated
06:15AM 31.1428 121.7924 221° Southwest  Level Estimated
06:16AM 31.1428 121.7924 221° Southwest  Level Estimated
06:17AM 31.1428 121.7924 221° Southwest  Level Estimated
06:18AM 31.1428 121.7924 221° Southwest  Level Estimated
06:19AM 31.1428 121.7924 221° Southwest  Level Estimated
06:20AM 31.1428 121.7924 221° Southwest  Level Estimated
06:21AM 31.1428 121.7924 221° Southwest  Level Estimated
06:22AM 31.1428 121.7924 221° Southwest  Level Estimated
06:23AM 31.1428 121.7924 221° Southwest  Level Estimated
06:24AM 31.1428 121.7924 221° Southwest  Level Estimated
06:25AM 31.1428 121.7924 221° Southwest  Level Estimated
06:26AM 31.1428 121.7924 221° Southwest  Level Estimated
06:27AM 31.1428 121.7924 221° Southwest  Level Estimated
06:28AM 31.1428 121.7924 221° Southwest  Level Estimated
06:29AM 31.1428 121.7924 221° Southwest  Level Estimated
06:30AM 31.1428 121.7924 221° Southwest  Level Estimated
06:31AM 31.1428 121.7924 221° Southwest  Level Estimated
06:32AM 31.1428 121.7924 221° Southwest  Level Estimated
06:33AM 31.1428 121.7924 221° Southwest  Level Estimated
06:34AM 31.1428 121.7924 221° Southwest  Level Estimated
06:35AM 31.1428 121.7924 221° Southwest  Level Estimated
06:36AM 31.1428 121.7924 221° Southwest  Level Estimated
06:37AM 31.1428 121.7924 221° Southwest  Level Estimated
06:38AM 31.1428 121.7924 221° Southwest  Level Estimated
06:39AM 31.1428 121.7924 221° Southwest  Level Estimated
06:40AM 31.1428 121.7924 221° Southwest  Level Estimated
06:41AM 31.1428 121.7924 221° Southwest  Level Estimated
06:42AM 31.1428 121.7924 221° Southwest  Level Estimated
06:43AM 31.1428 121.7924 221° Southwest  Level Estimated
06:44AM 31.1428 121.7924 221° Southwest  Level Estimated
06:45AM 31.1428 121.7924 221° Southwest  Level Estimated
06:46AM 31.1428 121.7924 221° Southwest  Level Estimated
06:47AM 31.1428 121.7924 221° Southwest  Level Estimated
06:48AM 31.1428 121.7924 221° Southwest  Level Estimated
06:49AM 31.1428 121.7924 221° Southwest  Level Estimated
06:50AM 31.1428 121.7924 221° Southwest  Level Estimated
06:51AM 31.1428 121.7924 221° Southwest  Level Estimated
06:52AM 31.1428 121.7924 221° Southwest  Level Estimated
06:53AM 31.1428 121.7924 221° Southwest  Level Estimated